Ana Sayfa
METAR-TAF:

METAR-TAF

Havaalanları :

Adelaide, Avustralya

Enlem: 34-56S, Boylam: 138-31E, yükseklik: 6 m

Güncel hava durumu gözlemi

Rapor saat 10:00 UTC de 14 dakika önce yapıldı.
Rüzgar güney/güneydoğudan 6 kt
Sıcaklık 7°C
Nem 70%
Basınç 1021 hPa
Görüş mesafesi 10 km veya daha fazla
1500 m altında bulut yok ve kümülonimbus yok

METAR: YPAD 041000Z 16006KT CAVOK 07/02 Q1021 NOSIG

Saat: 19:44 (10:14 UTC)

Tahmin

Rapor saat 04:34 UTC de 5 saat ve 40 dakika önce yapıldı.
Ayın 04'si saat 06 UTC'den ayın 05'si saat 12 UTC'ye kadar geçerli Tahmin
Rüzgar güney/güneydoğudan 10 kt
Görüş mesafesi 10 km veya daha fazla
5000 ft yükseklikte az bulutlu
Ayın 04'si saat 0900 UTC'den
Rüzgar doğudan 8 kt
Görüş mesafesi 10 km veya daha fazla
1500 m altında bulut yok ve kümülonimbus yok

TAF: YPAD 040434Z 0406/0512 15010KT 9999 FEW050 FM040900 10008KT CAVOK

4.000'den fazla havaalanı için hava durumu gözlemleri ve tahminleri (METAR ve TAF raporları).

Kullanılabilir istasyonlar harita üzerinde sarı ve kırmızı noktalarla gösterilir.

İstasyonun adını görmek için fareyi noktanın üzerinde gezdirin.

Sonrasında hava gözlem ve tahminlerini görmek için tıklayın.

Haritayı değiştirmek için: yaklaştırmak için siyah artı işaretli yeşil düğmeye ve uzaklaştırmak için de eksi işaretli düğmeye hızla tıklayın; bitişik haritalar için yeşil okları kullanın.


METAR-TAF: